Main page
METAR-TAF:

METAR-TAF

Airports :

Northeast Alabama Regional Airport

Gadsden, Alabama, United States

latitude: 33-58N, longitude: 086-05W, elevation: 567 ft

Current weather observation

The report was made 24 minutes ago, at 15:31 UTC
Calm wind
Temperature 79°F
Humidity 89%
Pressure 30.12 in. Hg
Visibility: 10 miles
Broken clouds at a height of 1200 ft

METAR: KGAD 231531Z AUTO 00000KT 10SM BKN012 26/24 A3012 RMK AO2 $

Time: 10:55 (15:55 UTC)


TAF: missing

Weather observations and forecasts of more than 4000 airports (METAR and TAF reports).

The available stations are represented by yellow and red dots on the map.

Hover mouse over dot to see the name of the station.

Then click to see weather observations and forecasts.

To change the map : click on the green buttons with a black cross to zoom in, on the green button with a dash to zoom out, or on the green arrows for adjacent maps.


METAR-TAF: